Terminal Aerodrome Forecast
Issued by NWS

Current Version | Previous Version | Graphics & Text | Print | Product List | Glossary On
Versions: 1 2 3 4 5 6 7 8 9 10 11 12 13 14 15 16 17 18 19
000
FTUS41 KILN 232337
TAFLUK
TAF
KLUK 232337Z 2400/2424 14005KT P6SM FEW050 BKN250
     FM240100 00000KT P6SM BKN250
     FM240900 VRB02KT P6SM BKN090
     FM241400 20007KT P6SM SCT050 BKN100
     FM242100 20010KT P6SM VCTS BKN050CB=

USA.gov is the U.S. government's official web portal to all federal, state and local government web resources and services.